Airfield :
LOGIN :

Register | Disclaimer

   EN    FR    IT 

 










Legend :    VFR   Marginal VFR   IFR   Intensive IFR   Very Intensive IFR
Visi :
Ceiling :
>= 8 km
>= 3000ft
5 to 8 km
1000 to 3000 ft
1500m to 5 km
500 to 1000 ft
800 to 1500m
200 to 500 ft
< 800m
< 200 ft
Symbols :   Thunderstorms  Fog  Heavy snow  Heavy precipitations  Wind > 20 kt
SIGMETs :     Misc.  Thunderstorms  Icing  Turbulence  Mountain Waves  Volcanic Ashes







- Airport Elevation : 697 ft
- IATA code : PEG


LIRZ - San Edigio Perugia

CURRENT METAR :
  • 141750Z 19010KT 9999 BKN030 12/10 Q1010

EXPIRED METARs :
  • 141650Z 16009KT 9999 BKN030 11/10 Q1011
  • 141550Z 15008KT 9000 FEW020 BKN030 11/10 Q1011

TAF TAF LIRZ
Valid from the 14 at 18:00 until the 15 at 18:00 UTC


141700Z 1418/1518 22014KT 9999 SCT030 BKN050
TEMPO 1418/1506 26015G25KT
TEMPO 1510/1518 4000 RA
No reported NOTAMs for that airfield.
1 SIGMET reported for the Roma FIR (LIRR) :
 
Severe turbulence
LIRR SIGMET 8 VALID 141600/142000 LIIB
LIRR ROMA FIR SEV TURB FCST WI N4149 E01305 - N4037 E01521 - N4107 E01507 - N4130 E01416 - N4255 E01301 - N4328 E01312 - N4336 E01053 - N4149 E01305 FL020/100 STNR NC=



MET'MAP, your aeronautical weather chart ! - Copyright ORBIFLY December 2007 - Disclaimer

ORBIFLY MET'MAP TEAM :

Programming & Development : Alexandra Zaïnal
Concept & Development : Baudouin d'Aumeries
Co-Development & Prog : Marc-Olivier Méhu
Technical & hardware support : Manuel Goepfert

Contact : metmap@orbifly.com




SOURCES & CREDITS :

   NOAA